WON8012 WADD-WARR
Flight info
| Callsign | WON8012 |
|---|---|
| Flight time | 0h 55m |
| Altitude | 18000 |
| Route | OKANG |
| Aircraft | AT76/M-SDFGIRY/S |
Departure
| Time | 2026-04-28 10:05 |
|---|---|
| Airport | Denpasar I Gusti Ngurah Rai International Airport (WADD) |
Arrival
| Time | 2026-04-28 11:00 |
|---|---|
| Airport | Juanda International Airport (WARR) |
| Time | Latitude | Longitude | Altitude | Speed | Heading |
|---|---|---|---|---|---|
| 2026-04-28 09:52 | -8.74551 | 115.17169 | 17 ft | 0 kts | 355° |
| 2026-04-28 09:56 | -8.74560 | 115.17169 | 19 ft | 2 kts | 355° |
| 2026-04-28 09:57 | -8.74574 | 115.17170 | 19 ft | 2 kts | 357° |
| 2026-04-28 09:57 | -8.74587 | 115.17171 | 18 ft | 2 kts | 360° |
| 2026-04-28 09:57 | -8.74600 | 115.17171 | 17 ft | 2 kts | 0° |
| 2026-04-28 09:57 | -8.74614 | 115.17171 | 20 ft | 2 kts | 359° |
| 2026-04-28 09:58 | -8.74628 | 115.17171 | 19 ft | 2 kts | 357° |
| 2026-04-28 09:58 | -8.74641 | 115.17172 | 19 ft | 2 kts | 356° |
| 2026-04-28 09:58 | -8.74648 | 115.17172 | 18 ft | 1 kts | 317° |
| 2026-04-28 09:58 | -8.74651 | 115.17176 | 18 ft | 1 kts | 279° |
| 2026-04-28 09:59 | -8.74652 | 115.17182 | 18 ft | 1 kts | 271° |
| 2026-04-28 09:59 | -8.74652 | 115.17187 | 21 ft | 1 kts | 268° |
| 2026-04-28 09:59 | -8.74652 | 115.17192 | 21 ft | 1 kts | 267° |
| 2026-04-28 09:59 | -8.74653 | 115.17171 | 17 ft | 8 kts | 267° |
| 2026-04-28 10:00 | -8.74656 | 115.17096 | 17 ft | 13 kts | 267° |
| 2026-04-28 10:00 | -8.74660 | 115.16994 | 17 ft | 16 kts | 267° |
| 2026-04-28 10:00 | -8.74667 | 115.16878 | 17 ft | 17 kts | 265° |
| 2026-04-28 10:00 | -8.74677 | 115.16752 | 17 ft | 18 kts | 265° |
| 2026-04-28 10:01 | -8.74680 | 115.16620 | 17 ft | 19 kts | 276° |
| 2026-04-28 10:01 | -8.74679 | 115.16486 | 17 ft | 19 kts | 268° |
| 2026-04-28 10:01 | -8.74687 | 115.16350 | 17 ft | 20 kts | 264° |
| 2026-04-28 10:01 | -8.74696 | 115.16212 | 17 ft | 20 kts | 269° |
| 2026-04-28 10:02 | -8.74701 | 115.16071 | 17 ft | 21 kts | 268° |
| 2026-04-28 10:02 | -8.74706 | 115.15921 | 17 ft | 21 kts | 268° |
| 2026-04-28 10:02 | -8.74713 | 115.15771 | 17 ft | 21 kts | 269° |
| 2026-04-28 10:02 | -8.74719 | 115.15621 | 17 ft | 22 kts | 268° |
| 2026-04-28 10:03 | -8.74724 | 115.15464 | 17 ft | 22 kts | 268° |
| 2026-04-28 10:03 | -8.74799 | 115.15388 | 16 ft | 11 kts | 178° |
| 2026-04-28 10:03 | -8.74866 | 115.15393 | 16 ft | 8 kts | 174° |
| 2026-04-28 10:03 | -8.74891 | 115.15407 | 17 ft | 2 kts | 118° |
| 2026-04-28 10:04 | -8.74891 | 115.15414 | 18 ft | 5 kts | 92° |
| 2026-04-28 10:04 | -8.74891 | 115.15439 | 17 ft | 3 kts | 89° |
| 2026-04-28 10:04 | -8.74887 | 115.15557 | 17 ft | 45 kts | 89° |
| 2026-04-28 10:04 | -8.74867 | 115.16082 | 18 ft | 102 kts | 88° |
| 2026-04-28 10:05 | -8.74815 | 115.16916 | 202 ft | 126 kts | 89° |
| 2026-04-28 10:05 | -8.74747 | 115.17846 | 610 ft | 134 kts | 87° |
| 2026-04-28 10:05 | -8.74658 | 115.18838 | 992 ft | 144 kts | 85° |
| 2026-04-28 10:05 | -8.74585 | 115.19848 | 1578 ft | 144 kts | 86° |
| 2026-04-28 10:06 | -8.74539 | 115.20865 | 2112 ft | 147 kts | 87° |
| 2026-04-28 10:06 | -8.74228 | 115.21881 | 2242 ft | 166 kts | 47° |
| 2026-04-28 10:06 | -8.73153 | 115.22313 | 2410 ft | 178 kts | 357° |
| 2026-04-28 10:06 | -8.72051 | 115.21761 | 2722 ft | 184 kts | 310° |
| 2026-04-28 10:07 | -8.71400 | 115.20658 | 2933 ft | 184 kts | 312° |
| 2026-04-28 10:07 | -8.70371 | 115.19904 | 3218 ft | 184 kts | 329° |
| 2026-04-28 10:07 | -8.69317 | 115.19162 | 3534 ft | 186 kts | 324° |
| 2026-04-28 10:07 | -8.68311 | 115.18330 | 3873 ft | 187 kts | 320° |
| 2026-04-28 10:08 | -8.67341 | 115.17452 | 4196 ft | 188 kts | 319° |
| 2026-04-28 10:08 | -8.66368 | 115.16550 | 4500 ft | 190 kts | 319° |
| 2026-04-28 10:08 | -8.65410 | 115.15650 | 4783 ft | 191 kts | 318° |
| 2026-04-28 10:08 | -8.64438 | 115.14730 | 5068 ft | 192 kts | 317° |
| 2026-04-28 10:09 | -8.63455 | 115.13813 | 5386 ft | 193 kts | 319° |
| 2026-04-28 10:09 | -8.62459 | 115.12897 | 5681 ft | 194 kts | 319° |
| 2026-04-28 10:09 | -8.61454 | 115.11976 | 5976 ft | 195 kts | 319° |
| 2026-04-28 10:09 | -8.60444 | 115.11054 | 6273 ft | 196 kts | 319° |
| 2026-04-28 10:10 | -8.59429 | 115.10127 | 6550 ft | 197 kts | 319° |
| 2026-04-28 10:10 | -8.58408 | 115.09192 | 6819 ft | 198 kts | 319° |
| 2026-04-28 10:10 | -8.57382 | 115.08255 | 7089 ft | 199 kts | 319° |
| 2026-04-28 10:10 | -8.56350 | 115.07315 | 7360 ft | 200 kts | 319° |
| 2026-04-28 10:11 | -8.55316 | 115.06370 | 7635 ft | 201 kts | 320° |
| 2026-04-28 10:11 | -8.54273 | 115.05417 | 7901 ft | 202 kts | 320° |
| 2026-04-28 10:11 | -8.53239 | 115.04474 | 8158 ft | 203 kts | 320° |
| 2026-04-28 10:11 | -8.52188 | 115.03513 | 8411 ft | 204 kts | 320° |
| 2026-04-28 10:12 | -8.51132 | 115.02550 | 8662 ft | 205 kts | 320° |
| 2026-04-28 10:12 | -8.50068 | 115.01579 | 8905 ft | 206 kts | 320° |
| 2026-04-28 10:12 | -8.48998 | 115.00604 | 9153 ft | 207 kts | 320° |
| 2026-04-28 10:12 | -8.47926 | 114.99625 | 9408 ft | 208 kts | 320° |
| 2026-04-28 10:13 | -8.46851 | 114.98639 | 9662 ft | 209 kts | 320° |
| 2026-04-28 10:13 | -8.45686 | 114.97771 | 9870 ft | 209 kts | 332° |
| 2026-04-28 10:13 | -8.44419 | 114.97044 | 10092 ft | 209 kts | 334° |
| 2026-04-28 10:13 | -8.43156 | 114.96338 | 10319 ft | 210 kts | 333° |
| 2026-04-28 10:14 | -8.41983 | 114.95468 | 10496 ft | 212 kts | 309° |
| 2026-04-28 10:14 | -8.41187 | 114.94202 | 10634 ft | 215 kts | 302° |
| 2026-04-28 10:14 | -8.40413 | 114.92909 | 10834 ft | 216 kts | 303° |
| 2026-04-28 10:14 | -8.39594 | 114.91634 | 11053 ft | 216 kts | 306° |
| 2026-04-28 10:15 | -8.38707 | 114.90401 | 11275 ft | 217 kts | 309° |
| 2026-04-28 10:15 | -8.37776 | 114.89199 | 11482 ft | 218 kts | 310° |
| 2026-04-28 10:15 | -8.36834 | 114.87996 | 11704 ft | 218 kts | 310° |
| 2026-04-28 10:15 | -8.35896 | 114.86785 | 11903 ft | 219 kts | 309° |
| 2026-04-28 10:16 | -8.34956 | 114.85567 | 12107 ft | 220 kts | 309° |
| 2026-04-28 10:16 | -8.34015 | 114.84343 | 12314 ft | 221 kts | 309° |
| 2026-04-28 10:16 | -8.33069 | 114.83119 | 12498 ft | 222 kts | 309° |
| 2026-04-28 10:16 | -8.32119 | 114.81886 | 12713 ft | 222 kts | 309° |
| 2026-04-28 10:17 | -8.31178 | 114.80666 | 12894 ft | 223 kts | 310° |
| 2026-04-28 10:17 | -8.30218 | 114.79430 | 13088 ft | 224 kts | 309° |
| 2026-04-28 10:17 | -8.29258 | 114.78186 | 13265 ft | 225 kts | 309° |
| 2026-04-28 10:17 | -8.28295 | 114.76935 | 13439 ft | 226 kts | 309° |
| 2026-04-28 10:18 | -8.27330 | 114.75683 | 13612 ft | 226 kts | 309° |
| 2026-04-28 10:18 | -8.26359 | 114.74423 | 13746 ft | 228 kts | 309° |
| 2026-04-28 10:18 | -8.25372 | 114.73143 | 13796 ft | 233 kts | 309° |
| 2026-04-28 10:18 | -8.24375 | 114.71856 | 13837 ft | 238 kts | 309° |
| 2026-04-28 10:19 | -8.23341 | 114.70519 | 13856 ft | 243 kts | 309° |
| 2026-04-28 10:19 | -8.22291 | 114.69159 | 13861 ft | 248 kts | 309° |
| 2026-04-28 10:19 | -8.21224 | 114.67776 | 13865 ft | 251 kts | 309° |
| 2026-04-28 10:19 | -8.20147 | 114.66373 | 13867 ft | 254 kts | 309° |
| 2026-04-28 10:20 | -8.19062 | 114.64949 | 13871 ft | 257 kts | 309° |
| 2026-04-28 10:20 | -8.17970 | 114.63509 | 13870 ft | 259 kts | 309° |
| 2026-04-28 10:20 | -8.16846 | 114.62075 | 13861 ft | 261 kts | 310° |
| 2026-04-28 10:20 | -8.16092 | 114.61127 | 13861 ft | 261 kts | 310° |
| 2026-04-28 10:21 | -8.14579 | 114.59227 | 13862 ft | 262 kts | 310° |
| 2026-04-28 10:21 | -8.13444 | 114.57785 | 13865 ft | 262 kts | 309° |
| 2026-04-28 10:21 | -8.12315 | 114.56332 | 13863 ft | 262 kts | 309° |
| 2026-04-28 10:21 | -8.11191 | 114.54880 | 13865 ft | 262 kts | 309° |
| 2026-04-28 10:22 | -8.10432 | 114.53899 | 13867 ft | 263 kts | 309° |
| 2026-04-28 10:22 | -8.08944 | 114.51975 | 13869 ft | 263 kts | 309° |
| 2026-04-28 10:22 | -8.07819 | 114.50520 | 13867 ft | 263 kts | 309° |
| 2026-04-28 10:22 | -8.07071 | 114.49554 | 13866 ft | 263 kts | 309° |
| 2026-04-28 10:23 | -8.05945 | 114.48098 | 13870 ft | 263 kts | 309° |
| 2026-04-28 10:23 | -8.04818 | 114.46641 | 13872 ft | 263 kts | 309° |
| 2026-04-28 10:23 | -8.03690 | 114.45181 | 13875 ft | 263 kts | 309° |
| 2026-04-28 10:23 | -8.02564 | 114.43726 | 13873 ft | 263 kts | 309° |
| 2026-04-28 10:24 | -8.01435 | 114.42265 | 13875 ft | 263 kts | 309° |
| 2026-04-28 10:24 | -8.00323 | 114.40828 | 13875 ft | 263 kts | 309° |
| 2026-04-28 10:24 | -7.99194 | 114.39371 | 13875 ft | 264 kts | 309° |
| 2026-04-28 10:24 | -7.98062 | 114.37908 | 13876 ft | 264 kts | 309° |
| 2026-04-28 10:25 | -7.96932 | 114.36449 | 13878 ft | 264 kts | 309° |
| 2026-04-28 10:25 | -7.95799 | 114.34983 | 13875 ft | 264 kts | 309° |
| 2026-04-28 10:25 | -7.94668 | 114.33523 | 13876 ft | 264 kts | 309° |
| 2026-04-28 10:25 | -7.93550 | 114.32081 | 13879 ft | 264 kts | 309° |
| 2026-04-28 10:26 | -7.92421 | 114.30619 | 13879 ft | 264 kts | 309° |
| 2026-04-28 10:26 | -7.91287 | 114.29156 | 13880 ft | 264 kts | 309° |
| 2026-04-28 10:26 | -7.90153 | 114.27691 | 13879 ft | 264 kts | 309° |
| 2026-04-28 10:26 | -7.89020 | 114.26230 | 13876 ft | 265 kts | 309° |
| 2026-04-28 10:27 | -7.87887 | 114.24768 | 13880 ft | 265 kts | 309° |
| 2026-04-28 10:27 | -7.86754 | 114.23303 | 13882 ft | 265 kts | 309° |
| 2026-04-28 10:27 | -7.85619 | 114.21840 | 13873 ft | 265 kts | 309° |
| 2026-04-28 10:27 | -7.84485 | 114.20377 | 13872 ft | 265 kts | 309° |
| 2026-04-28 10:28 | -7.83351 | 114.18913 | 13872 ft | 265 kts | 309° |
| 2026-04-28 10:28 | -7.82217 | 114.17451 | 13873 ft | 265 kts | 309° |
| 2026-04-28 10:28 | -7.81082 | 114.15986 | 13873 ft | 265 kts | 309° |
| 2026-04-28 10:29 | -7.78814 | 114.13063 | 13868 ft | 264 kts | 309° |
| 2026-04-28 10:29 | -7.77685 | 114.11603 | 13867 ft | 264 kts | 309° |
| 2026-04-28 10:29 | -7.76553 | 114.10145 | 13868 ft | 264 kts | 310° |
| 2026-04-28 10:29 | -7.75491 | 114.08642 | 13862 ft | 263 kts | 296° |
| 2026-04-28 10:30 | -7.75066 | 114.06853 | 13866 ft | 262 kts | 275° |
| 2026-04-28 10:30 | -7.74991 | 114.05018 | 13865 ft | 262 kts | 270° |
| 2026-04-28 10:30 | -7.74988 | 114.03203 | 13867 ft | 262 kts | 270° |
| 2026-04-28 10:30 | -7.74977 | 114.01356 | 13868 ft | 263 kts | 271° |
| 2026-04-28 10:31 | -7.74920 | 113.99511 | 13871 ft | 264 kts | 272° |
| 2026-04-28 10:31 | -7.74836 | 113.97658 | 13866 ft | 265 kts | 272° |
| 2026-04-28 10:31 | -7.74753 | 113.95804 | 13872 ft | 265 kts | 272° |
| 2026-04-28 10:31 | -7.74669 | 113.93945 | 13871 ft | 266 kts | 272° |
| 2026-04-28 10:32 | -7.74586 | 113.92086 | 13869 ft | 266 kts | 272° |
| 2026-04-28 10:32 | -7.74505 | 113.90223 | 13871 ft | 266 kts | 272° |
| 2026-04-28 10:32 | -7.74421 | 113.88361 | 13868 ft | 266 kts | 272° |
| 2026-04-28 10:32 | -7.74339 | 113.86494 | 13868 ft | 266 kts | 272° |
| 2026-04-28 10:33 | -7.74254 | 113.84628 | 13865 ft | 266 kts | 272° |
| 2026-04-28 10:33 | -7.74171 | 113.82764 | 13866 ft | 266 kts | 272° |
| 2026-04-28 10:33 | -7.74090 | 113.80897 | 13864 ft | 266 kts | 272° |
| 2026-04-28 10:33 | -7.74005 | 113.79032 | 13863 ft | 266 kts | 272° |
| 2026-04-28 10:34 | -7.73924 | 113.77169 | 13864 ft | 266 kts | 272° |
| 2026-04-28 10:34 | -7.73840 | 113.75309 | 13864 ft | 266 kts | 272° |
| 2026-04-28 10:34 | -7.73757 | 113.73445 | 13860 ft | 266 kts | 272° |
| 2026-04-28 10:34 | -7.73673 | 113.71581 | 13861 ft | 266 kts | 272° |
| 2026-04-28 10:35 | -7.73589 | 113.69718 | 13864 ft | 266 kts | 272° |
| 2026-04-28 10:35 | -7.73506 | 113.67876 | 13862 ft | 266 kts | 272° |
| 2026-04-28 10:35 | -7.73423 | 113.66010 | 13861 ft | 266 kts | 272° |
| 2026-04-28 10:35 | -7.73340 | 113.64146 | 13865 ft | 266 kts | 272° |
| 2026-04-28 10:36 | -7.73255 | 113.62277 | 13863 ft | 267 kts | 273° |
| 2026-04-28 10:36 | -7.73170 | 113.60413 | 13853 ft | 267 kts | 272° |
| 2026-04-28 10:36 | -7.73088 | 113.58544 | 13857 ft | 267 kts | 273° |
| 2026-04-28 10:36 | -7.73002 | 113.56665 | 13858 ft | 267 kts | 272° |
| 2026-04-28 10:37 | -7.72921 | 113.54814 | 13854 ft | 267 kts | 272° |
| 2026-04-28 10:37 | -7.72718 | 113.52967 | 13858 ft | 265 kts | 284° |
| 2026-04-28 10:37 | -7.72220 | 113.51173 | 13851 ft | 266 kts | 288° |
| 2026-04-28 10:37 | -7.71672 | 113.49390 | 13851 ft | 266 kts | 288° |
| 2026-04-28 10:38 | -7.71146 | 113.47597 | 13851 ft | 266 kts | 286° |
| 2026-04-28 10:38 | -7.70672 | 113.45790 | 13846 ft | 266 kts | 285° |
| 2026-04-28 10:38 | -7.70215 | 113.43972 | 13851 ft | 266 kts | 285° |
| 2026-04-28 10:38 | -7.69760 | 113.42185 | 13847 ft | 266 kts | 285° |
| 2026-04-28 10:39 | -7.69297 | 113.40378 | 13849 ft | 266 kts | 285° |
| 2026-04-28 10:39 | -7.68835 | 113.38566 | 13847 ft | 266 kts | 285° |
| 2026-04-28 10:39 | -7.68371 | 113.36758 | 13845 ft | 267 kts | 285° |
| 2026-04-28 10:39 | -7.67909 | 113.34947 | 13845 ft | 267 kts | 285° |
| 2026-04-28 10:40 | -7.67445 | 113.33139 | 13846 ft | 267 kts | 285° |
| 2026-04-28 10:40 | -7.66982 | 113.31330 | 13844 ft | 267 kts | 285° |
| 2026-04-28 10:40 | -7.66517 | 113.29515 | 13840 ft | 267 kts | 285° |
| 2026-04-28 10:40 | -7.66052 | 113.27704 | 13838 ft | 267 kts | 285° |
| 2026-04-28 10:41 | -7.65587 | 113.25891 | 13839 ft | 268 kts | 285° |
| 2026-04-28 10:41 | -7.65171 | 113.24055 | 13839 ft | 268 kts | 283° |
| 2026-04-28 10:41 | -7.64817 | 113.22236 | 13839 ft | 268 kts | 281° |
| 2026-04-28 10:41 | -7.64468 | 113.20389 | 13838 ft | 268 kts | 282° |
| 2026-04-28 10:42 | -7.64110 | 113.18539 | 13834 ft | 268 kts | 282° |
| 2026-04-28 10:42 | -7.63748 | 113.16696 | 13834 ft | 268 kts | 282° |
| 2026-04-28 10:42 | -7.63387 | 113.14849 | 13835 ft | 268 kts | 282° |
| 2026-04-28 10:42 | -7.63027 | 113.13002 | 13833 ft | 268 kts | 282° |
| 2026-04-28 10:43 | -7.62667 | 113.11157 | 13833 ft | 268 kts | 282° |
| 2026-04-28 10:43 | -7.62304 | 113.09311 | 13833 ft | 269 kts | 282° |
| 2026-04-28 10:43 | -7.61944 | 113.07461 | 13834 ft | 269 kts | 282° |
| 2026-04-28 10:43 | -7.61582 | 113.05615 | 13834 ft | 269 kts | 282° |
| 2026-04-28 10:44 | -7.61220 | 113.03765 | 13836 ft | 269 kts | 282° |
| 2026-04-28 10:44 | -7.60859 | 113.01917 | 13832 ft | 269 kts | 282° |
| 2026-04-28 10:44 | -7.60501 | 113.00093 | 13834 ft | 269 kts | 282° |
| 2026-04-28 10:44 | -7.60139 | 112.98238 | 13835 ft | 269 kts | 282° |
| 2026-04-28 10:45 | -7.59777 | 112.96391 | 13835 ft | 269 kts | 282° |
| 2026-04-28 10:45 | -7.59415 | 112.94539 | 13833 ft | 269 kts | 282° |
| 2026-04-28 10:45 | -7.59051 | 112.92681 | 13833 ft | 269 kts | 282° |
| 2026-04-28 10:45 | -7.58686 | 112.90826 | 13834 ft | 269 kts | 282° |
| 2026-04-28 10:46 | -7.58324 | 112.88972 | 13830 ft | 270 kts | 282° |
| 2026-04-28 10:46 | -7.57960 | 112.87115 | 13830 ft | 270 kts | 282° |
| 2026-04-28 10:46 | -7.57590 | 112.85231 | 13570 ft | 282 kts | 281° |
| 2026-04-28 10:46 | -7.57203 | 112.83268 | 13121 ft | 296 kts | 282° |
| 2026-04-28 10:47 | -7.56798 | 112.81237 | 12916 ft | 291 kts | 282° |
| 2026-04-28 10:47 | -7.56424 | 112.79263 | 12874 ft | 283 kts | 281° |
| 2026-04-28 10:47 | -7.56055 | 112.77323 | 12853 ft | 279 kts | 281° |
| 2026-04-28 10:47 | -7.55683 | 112.75420 | 12841 ft | 276 kts | 281° |
| 2026-04-28 10:48 | -7.55312 | 112.73527 | 12836 ft | 275 kts | 281° |
| 2026-04-28 10:48 | -7.54940 | 112.71631 | 12835 ft | 276 kts | 281° |
| 2026-04-28 10:48 | -7.54572 | 112.69735 | 12832 ft | 275 kts | 281° |
| 2026-04-28 10:48 | -7.54198 | 112.67843 | 12767 ft | 277 kts | 281° |
| 2026-04-28 10:49 | -7.53817 | 112.65895 | 12323 ft | 281 kts | 281° |
| 2026-04-28 10:49 | -7.53451 | 112.64026 | 11898 ft | 263 kts | 281° |
| 2026-04-28 10:49 | -7.53107 | 112.62267 | 11498 ft | 249 kts | 281° |
| 2026-04-28 10:49 | -7.52783 | 112.60610 | 11129 ft | 241 kts | 281° |
| 2026-04-28 10:50 | -7.52453 | 112.58913 | 10762 ft | 250 kts | 281° |
| 2026-04-28 10:50 | -7.52115 | 112.57211 | 10405 ft | 243 kts | 281° |
| 2026-04-28 10:50 | -7.51786 | 112.55533 | 10049 ft | 245 kts | 281° |
| 2026-04-28 10:50 | -7.51451 | 112.53837 | 9690 ft | 246 kts | 281° |
| 2026-04-28 10:51 | -7.50819 | 112.52326 | 9270 ft | 229 kts | 313° |
| 2026-04-28 10:51 | -7.49513 | 112.51515 | 8907 ft | 222 kts | 351° |
| 2026-04-28 10:51 | -7.47977 | 112.51424 | 8550 ft | 223 kts | 6° |
| 2026-04-28 10:51 | -7.46450 | 112.51614 | 8183 ft | 223 kts | 13° |
| 2026-04-28 10:52 | -7.44952 | 112.51907 | 7838 ft | 218 kts | 14° |
| 2026-04-28 10:52 | -7.43476 | 112.52209 | 7492 ft | 216 kts | 14° |
| 2026-04-28 10:52 | -7.41988 | 112.52508 | 7154 ft | 220 kts | 13° |
| 2026-04-28 10:52 | -7.40483 | 112.52782 | 6809 ft | 214 kts | 12° |
| 2026-04-28 10:53 | -7.39032 | 112.53033 | 6483 ft | 212 kts | 12° |
| 2026-04-28 10:53 | -7.37557 | 112.53285 | 6145 ft | 217 kts | 12° |
| 2026-04-28 10:53 | -7.36052 | 112.53543 | 5782 ft | 221 kts | 12° |
| 2026-04-28 10:53 | -7.34561 | 112.53806 | 5420 ft | 209 kts | 14° |
| 2026-04-28 10:54 | -7.33386 | 112.54489 | 5084 ft | 191 kts | 55° |
| 2026-04-28 10:54 | -7.33045 | 112.55732 | 4798 ft | 191 kts | 99° |
| 2026-04-28 10:54 | -7.33527 | 112.56967 | 4498 ft | 196 kts | 115° |
| 2026-04-28 10:54 | -7.34115 | 112.58231 | 4177 ft | 202 kts | 117° |
| 2026-04-28 10:55 | -7.34748 | 112.59465 | 3758 ft | 195 kts | 116° |
| 2026-04-28 10:55 | -7.35131 | 112.60779 | 3220 ft | 193 kts | 98° |
| 2026-04-28 10:55 | -7.35291 | 112.62088 | 2915 ft | 181 kts | 98° |
| 2026-04-28 10:55 | -7.35485 | 112.63304 | 2640 ft | 170 kts | 101° |
| 2026-04-28 10:56 | -7.35686 | 112.64443 | 2413 ft | 162 kts | 100° |
| 2026-04-28 10:56 | -7.35862 | 112.65537 | 2206 ft | 153 kts | 99° |
| 2026-04-28 10:56 | -7.36014 | 112.66530 | 2027 ft | 133 kts | 99° |
| 2026-04-28 10:56 | -7.36150 | 112.67386 | 1887 ft | 119 kts | 99° |
| 2026-04-28 10:57 | -7.36283 | 112.68175 | 1733 ft | 109 kts | 100° |
| 2026-04-28 10:57 | -7.36400 | 112.68912 | 1605 ft | 106 kts | 99° |
| 2026-04-28 10:57 | -7.36522 | 112.69652 | 1478 ft | 108 kts | 101° |
| 2026-04-28 10:57 | -7.36648 | 112.70408 | 1340 ft | 110 kts | 100° |
| 2026-04-28 10:58 | -7.36772 | 112.71167 | 1215 ft | 109 kts | 100° |
| 2026-04-28 10:58 | -7.36894 | 112.71925 | 1062 ft | 110 kts | 100° |
| 2026-04-28 10:58 | -7.37008 | 112.72676 | 925 ft | 108 kts | 100° |
| 2026-04-28 10:58 | -7.37129 | 112.73405 | 793 ft | 103 kts | 99° |
| 2026-04-28 10:59 | -7.37260 | 112.74096 | 670 ft | 106 kts | 99° |
| 2026-04-28 10:59 | -7.37370 | 112.74830 | 557 ft | 106 kts | 95° |
| 2026-04-28 10:59 | -7.37489 | 112.75573 | 404 ft | 107 kts | 96° |
| 2026-04-28 10:59 | -7.37600 | 112.76323 | 239 ft | 109 kts | 95° |
| 2026-04-28 11:00 | -7.37728 | 112.77096 | 100 ft | 111 kts | 96° |
| 2026-04-28 11:00 | -7.37847 | 112.77852 | 9 ft | 106 kts | 95° |
| 2026-04-28 11:00 | -7.37917 | 112.78281 | 5 ft | 22 kts | 99° |
| 2026-04-28 11:00 | -7.37938 | 112.78415 | 5 ft | 17 kts | 101° |
| 2026-04-28 11:01 | -7.37963 | 112.78564 | 5 ft | 23 kts | 101° |
| 2026-04-28 11:01 | -7.37987 | 112.78708 | 6 ft | 22 kts | 99° |
| 2026-04-28 11:01 | -7.37997 | 112.78838 | 6 ft | 13 kts | 71° |
| 2026-04-28 11:01 | -7.37943 | 112.78861 | 6 ft | 8 kts | 4° |
| 2026-04-28 11:02 | -7.37890 | 112.78867 | 6 ft | 7 kts | 10° |
| 2026-04-28 11:02 | -7.37844 | 112.78875 | 6 ft | 7 kts | 11° |
| 2026-04-28 11:02 | -7.37797 | 112.78884 | 6 ft | 7 kts | 9° |
| 2026-04-28 11:02 | -7.37744 | 112.78892 | 5 ft | 8 kts | 8° |
| 2026-04-28 11:03 | -7.37694 | 112.78900 | 5 ft | 7 kts | 9° |
| 2026-04-28 11:03 | -7.37648 | 112.78908 | 5 ft | 6 kts | 9° |
| 2026-04-28 11:03 | -7.37605 | 112.78916 | 5 ft | 6 kts | 19° |
| 2026-04-28 11:03 | -7.37596 | 112.78947 | 5 ft | 5 kts | 99° |
| 2026-04-28 11:04 | -7.37603 | 112.78989 | 5 ft | 7 kts | 99° |
| 2026-04-28 11:04 | -7.37611 | 112.79038 | 5 ft | 8 kts | 99° |
| 2026-04-28 11:04 | -7.37619 | 112.79092 | 5 ft | 8 kts | 99° |
| 2026-04-28 11:04 | -7.37629 | 112.79150 | 5 ft | 9 kts | 99° |
| 2026-04-28 11:05 | -7.37639 | 112.79210 | 5 ft | 9 kts | 101° |
| 2026-04-28 11:05 | -7.37650 | 112.79271 | 5 ft | 9 kts | 100° |
| 2026-04-28 11:05 | -7.37657 | 112.79328 | 5 ft | 4 kts | 82° |
| 2026-04-28 11:05 | -7.37637 | 112.79338 | 5 ft | 3 kts | 5° |
| 2026-04-28 11:06 | -7.37611 | 112.79340 | 5 ft | 5 kts | 6° |
| 2026-04-28 11:06 | -7.37573 | 112.79346 | 5 ft | 0 kts | 12° |